Time;durP1;ratioP1;P1;durP2;ratioP2;P2;SDS_P1;SDS_P2;PMS_P1;PMS_P2;Temp;Humidity;BMP_temperature;BMP_pressure;BME280_temperature;BME280_humidity;BME280_pressure;Samples;Min_cycle;Max_cycle;Signal;HPM_P1;HPM_P2
2022/10/27 00:02:01;;;;;;;13.13;3.30;;;;;;;;;;5016031;28;20034;-27
2022/10/27 00:04:27;;;;;;;15.40;3.53;;;;;;;;;;5015564;28;20034;-27
2022/10/27 00:06:53;;;;;;;22.08;4.10;;;;;;;;;;5015999;28;20112;-27
2022/10/27 00:09:19;;;;;;;21.10;4.20;;;;;;;;;;5015551;28;20365;-27
2022/10/27 00:11:45;;;;;;;14.60;3.17;;;;;;;;;;5015651;28;20037;-27
2022/10/27 00:14:11;;;;;;;16.33;4.20;;;;;;;;;;5015558;28;20040;-27
2022/10/27 00:16:37;;;;;;;16.90;4.38;;;;;;;;;;5015862;28;20050;-27
2022/10/27 00:19:03;;;;;;;14.63;2.80;;;;;;;;;;5015597;28;20026;-27
2022/10/27 00:21:30;;;;;;;12.02;2.95;;;;;;;;;;5015540;28;20030;-27
2022/10/27 00:23:56;;;;;;;11.20;3.92;;;;;;;;;;5015266;28;20034;-27
2022/10/27 00:26:22;;;;;;;13.80;3.35;;;;;;;;;;5015724;28;20104;-27
2022/10/27 00:28:48;;;;;;;20.17;3.70;;;;;;;;;;5015418;28;20049;-27
2022/10/27 00:31:14;;;;;;;21.08;4.82;;;;;;;;;;5015371;28;20021;-27
2022/10/27 00:33:41;;;;;;;15.57;4.88;;;;;;;;;;5015217;28;20053;-27
2022/10/27 00:36:18;;;;;;;9.73;4.22;;;;;;;;;;5015277;28;20038;-27
2022/10/27 00:38:44;;;;;;;18.67;4.10;;;;;;;;;;5015546;28;20037;-27
2022/10/27 00:41:31;;;;;;;9.98;3.00;;;;;;;;;;5015248;28;20033;-27
2022/10/27 00:43:58;;;;;;;17.90;3.40;;;;;;;;;;5014935;28;20026;-27
2022/10/27 00:46:33;;;;;;;8.77;2.80;;;;;;;;;;5015427;28;20105;-27
2022/10/27 00:49:01;;;;;;;20.15;2.70;;;;;;;;;;5015414;28;20041;-27
2022/10/27 00:51:28;;;;;;;10.45;2.90;;;;;;;;;;5015021;28;20029;-27
2022/10/27 00:53:55;;;;;;;15.52;3.75;;;;;;;;;;5014913;28;20476;-27
2022/10/27 00:56:22;;;;;;;15.90;4.38;;;;;;;;;;5015054;28;20076;-27
2022/10/27 00:58:48;;;;;;;19.42;3.42;;;;;;;;;;5015275;28;20105;-27
2022/10/27 01:01:15;;;;;;;10.13;3.03;;;;;;;;;;5015007;28;20030;-27
2022/10/27 01:03:41;;;;;;;13.95;3.28;;;;;;;;;;5014293;28;20133;-27
2022/10/27 01:06:07;;;;;;;16.38;4.45;;;;;;;;;;5014119;28;20472;-27
2022/10/27 01:08:34;;;;;;;15.82;3.88;;;;;;;;;;5014115;28;20161;-27
2022/10/27 01:11:00;;;;;;;15.23;3.22;;;;;;;;;;5014045;28;20076;-27
2022/10/27 01:13:26;;;;;;;9.20;3.63;;;;;;;;;;5013974;28;20030;-27
2022/10/27 01:15:55;;;;;;;14.27;3.60;;;;;;;;;;5014251;28;20026;-27
2022/10/27 01:18:25;;;;;;;10.73;3.65;;;;;;;;;;5013992;28;20045;-27
2022/10/27 01:21:10;;;;;;;19.73;6.18;;;;;;;;;;5014885;28;20088;-27
2022/10/27 01:23:36;;;;;;;14.32;4.15;;;;;;;;;;5017252;28;20034;-27
2022/10/27 01:26:19;;;;;;;22.77;5.47;;;;;;;;;;5017743;28;20053;-27
2022/10/27 01:29:04;;;;;;;13.32;4.18;;;;;;;;;;5017410;28;20030;-27
2022/10/27 01:31:34;;;;;;;18.85;4.10;;;;;;;;;;5017279;28;20076;-27
2022/10/27 01:34:02;;;;;;;13.75;3.33;;;;;;;;;;5017225;28;20076;-27
2022/10/27 01:36:45;;;;;;;18.75;3.35;;;;;;;;;;5017504;28;20148;-27
2022/10/27 01:39:14;;;;;;;16.77;4.28;;;;;;;;;;5017201;28;20468;-27
2022/10/27 01:41:47;;;;;;;15.45;3.20;;;;;;;;;;5017104;28;20048;-27
2022/10/27 01:44:17;;;;;;;20.98;4.57;;;;;;;;;;5017276;28;20057;-27
2022/10/27 01:46:43;;;;;;;17.77;3.30;;;;;;;;;;5017690;28;20104;-27
2022/10/27 01:49:10;;;;;;;11.65;3.45;;;;;;;;;;5016996;28;20088;-27
2022/10/27 01:51:36;;;;;;;15.20;3.42;;;;;;;;;;5017023;28;20022;-27
2022/10/27 01:54:03;;;;;;;9.25;2.70;;;;;;;;;;5017190;28;20038;-27
2022/10/27 01:56:47;;;;;;;9.43;3.95;;;;;;;;;;5016962;28;20050;-27
2022/10/27 01:59:39;;;;;;;11.82;3.38;;;;;;;;;;5017198;28;20412;-27
2022/10/27 02:02:13;;;;;;;13.40;5.28;;;;;;;;;;5013358;28;20372;-27
2022/10/27 02:04:39;;;;;;;14.32;3.50;;;;;;;;;;4974952;28;1241829;-27
2022/10/27 02:07:25;;;;;;;12.98;3.72;;;;;;;;;;5000746;28;20030;-27
2022/10/27 02:09:55;;;;;;;14.90;4.15;;;;;;;;;;5018273;28;20026;-27
2022/10/27 02:12:25;;;;;;;12.05;3.33;;;;;;;;;;5017780;28;20030;-25
2022/10/27 02:14:53;;;;;;;15.80;4.15;;;;;;;;;;5018171;28;20124;-26
2022/10/27 02:17:21;;;;;;;12.35;3.10;;;;;;;;;;5018091;28;20361;-25
2022/10/27 02:19:48;;;;;;;20.10;3.55;;;;;;;;;;5017757;28;20034;-26
2022/10/27 02:22:15;;;;;;;14.07;3.50;;;;;;;;;;5017668;28;20026;-26
2022/10/27 02:24:42;;;;;;;14.07;4.28;;;;;;;;;;5018161;28;20437;-26
2022/10/27 02:27:09;;;;;;;13.13;3.60;;;;;;;;;;5017579;28;20030;-26
2022/10/27 02:29:39;;;;;;;12.13;3.60;;;;;;;;;;5017535;28;20040;-26
2022/10/27 02:32:06;;;;;;;8.25;3.10;;;;;;;;;;5017343;28;20045;-26
2022/10/27 02:34:33;;;;;;;10.75;3.63;;;;;;;;;;5017443;28;20044;-26
2022/10/27 02:36:59;;;;;;;11.85;2.92;;;;;;;;;;5017406;28;20052;-26
2022/10/27 02:39:25;;;;;;;11.45;3.00;;;;;;;;;;5017433;28;20030;-26
2022/10/27 02:41:51;;;;;;;10.23;2.80;;;;;;;;;;5017548;28;20033;-26
2022/10/27 02:44:17;;;;;;;13.55;3.13;;;;;;;;;;5017205;28;20040;-26
2022/10/27 02:46:44;;;;;;;7.05;3.17;;;;;;;;;;5017218;28;20032;-26
2022/10/27 02:49:10;;;;;;;13.13;3.95;;;;;;;;;;5017198;28;20026;-26
2022/10/27 02:51:36;;;;;;;16.35;3.63;;;;;;;;;;5017169;28;20036;-26
2022/10/27 02:54:02;;;;;;;15.55;4.30;;;;;;;;;;5017321;28;20029;-26
2022/10/27 02:56:28;;;;;;;13.90;3.65;;;;;;;;;;5017094;28;20088;-26
2022/10/27 02:58:54;;;;;;;10.68;3.60;;;;;;;;;;4999796;28;20037;-26
2022/10/27 03:01:20;;;;;;;13.30;4.35;;;;;;;;;;5016978;28;20037;-26
2022/10/27 03:03:47;;;;;;;9.25;3.38;;;;;;;;;;5016879;28;20108;-27
2022/10/27 03:06:13;;;;;;;8.23;2.75;;;;;;;;;;5016899;28;20022;-26
2022/10/27 03:08:39;;;;;;;6.45;2.80;;;;;;;;;;4999611;28;20036;-26
2022/10/27 03:11:05;;;;;;;10.27;3.75;;;;;;;;;;5016845;28;20033;-26
2022/10/27 03:13:31;;;;;;;8.82;3.15;;;;;;;;;;5016983;28;20385;-26
2022/10/27 03:15:57;;;;;;;12.80;3.80;;;;;;;;;;5017275;28;20038;-26
2022/10/27 03:18:23;;;;;;;10.27;3.42;;;;;;;;;;5016672;28;20030;-26
2022/10/27 03:20:49;;;;;;;14.73;3.47;;;;;;;;;;5016589;28;20108;-26
2022/10/27 03:23:15;;;;;;;14.52;3.22;;;;;;;;;;5016718;28;20073;-26
2022/10/27 03:25:43;;;;;;;10.32;3.10;;;;;;;;;;5016548;28;20037;-26
2022/10/27 03:28:10;;;;;;;19.30;4.03;;;;;;;;;;5016449;28;20160;-26
2022/10/27 03:30:36;;;;;;;11.05;3.63;;;;;;;;;;5016725;28;20029;-26
2022/10/27 03:33:03;;;;;;;13.75;3.53;;;;;;;;;;5016492;28;20032;-26
2022/10/27 03:35:29;;;;;;;12.77;2.83;;;;;;;;;;5016290;28;20087;-26
2022/10/27 03:37:56;;;;;;;12.30;4.53;;;;;;;;;;5016283;28;20038;-26
2022/10/27 03:40:22;;;;;;;14.45;3.28;;;;;;;;;;5016242;28;20046;-26
2022/10/27 03:42:48;;;;;;;18.42;3.72;;;;;;;;;;5016304;28;20053;-26
2022/10/27 03:45:15;;;;;;;8.75;3.38;;;;;;;;;;5016090;28;20026;-26
2022/10/27 03:47:41;;;;;;;10.23;4.15;;;;;;;;;;5016322;28;20034;-26
2022/10/27 03:50:07;;;;;;;9.80;3.75;;;;;;;;;;5016062;28;20369;-26
2022/10/27 03:52:33;;;;;;;10.43;2.90;;;;;;;;;;5016095;28;20033;-26
2022/10/27 03:55:00;;;;;;;8.73;3.30;;;;;;;;;;5015910;28;20033;-26
2022/10/27 03:57:26;;;;;;;11.18;4.65;;;;;;;;;;5016293;28;20034;-26
2022/10/27 03:59:52;;;;;;;16.30;5.00;;;;;;;;;;5015709;28;20029;-26
2022/10/27 04:02:18;;;;;;;10.38;3.35;;;;;;;;;;5015774;28;20049;-26
2022/10/27 04:04:44;;;;;;;7.93;3.05;;;;;;;;;;5015343;28;20117;-26
2022/10/27 04:07:10;;;;;;;11.07;3.05;;;;;;;;;;5015527;28;20469;-26
2022/10/27 04:09:36;;;;;;;6.90;3.05;;;;;;;;;;5015778;28;20057;-26
2022/10/27 04:12:02;;;;;;;11.30;2.83;;;;;;;;;;5015646;28;20022;-27
2022/10/27 04:14:28;;;;;;;20.90;3.72;;;;;;;;;;5015506;28;20054;-26
2022/10/27 04:16:55;;;;;;;9.18;2.80;;;;;;;;;;5015708;28;20049;-26
2022/10/27 04:19:21;;;;;;;11.52;4.88;;;;;;;;;;5015708;28;20386;-26
2022/10/27 04:21:47;;;;;;;15.02;4.18;;;;;;;;;;5015350;28;20441;-26
2022/10/27 04:24:14;;;;;;;14.25;3.17;;;;;;;;;;5015449;28;20388;-26
2022/10/27 04:26:40;;;;;;;12.32;2.95;;;;;;;;;;5015235;28;20054;-26
2022/10/27 04:29:06;;;;;;;10.23;3.78;;;;;;;;;;5015237;28;20030;-26
2022/10/27 04:31:32;;;;;;;11.45;3.10;;;;;;;;;;5015241;28;20499;-26
2022/10/27 04:33:58;;;;;;;10.23;3.50;;;;;;;;;;5015349;28;20022;-26
2022/10/27 04:36:25;;;;;;;6.70;2.97;;;;;;;;;;5015436;28;20108;-27
2022/10/27 04:38:51;;;;;;;10.80;2.83;;;;;;;;;;5015062;28;20137;-26
2022/10/27 04:41:18;;;;;;;15.68;3.42;;;;;;;;;;5014997;28;20109;-27
2022/10/27 04:43:44;;;;;;;17.65;4.38;;;;;;;;;;5015239;28;20463;-27
2022/10/27 04:46:10;;;;;;;7.38;3.13;;;;;;;;;;5015168;28;20071;-26
2022/10/27 04:48:36;;;;;;;14.05;3.80;;;;;;;;;;5015046;28;20018;-26
2022/10/27 04:51:02;;;;;;;8.63;2.55;;;;;;;;;;5014862;28;20022;-26
2022/10/27 04:53:28;;;;;;;15.32;4.05;;;;;;;;;;5014749;28;20040;-26
2022/10/27 04:55:54;;;;;;;9.32;4.45;;;;;;;;;;5014953;28;20438;-27
2022/10/27 04:58:21;;;;;;;18.58;4.97;;;;;;;;;;5014787;28;20101;-26
2022/10/27 05:00:47;;;;;;;7.82;3.47;;;;;;;;;;5015106;28;20092;-26
2022/10/27 05:03:14;;;;;;;7.55;3.45;;;;;;;;;;5014460;28;20045;-26
2022/10/27 05:05:40;;;;;;;13.20;3.58;;;;;;;;;;5015134;28;20084;-26
2022/10/27 05:08:06;;;;;;;12.52;3.45;;;;;;;;;;5015051;28;20414;-26
2022/10/27 05:10:34;;;;;;;12.98;3.70;;;;;;;;;;5014707;28;20030;-26
2022/10/27 05:13:00;;;;;;;12.63;3.50;;;;;;;;;;5014619;28;20508;-26
2022/10/27 05:15:26;;;;;;;8.90;2.88;;;;;;;;;;5014758;28;20041;-27
2022/10/27 05:17:52;;;;;;;12.23;3.85;;;;;;;;;;5014995;28;20034;-26
2022/10/27 05:20:19;;;;;;;9.15;3.08;;;;;;;;;;5014746;28;20069;-26
2022/10/27 05:22:46;;;;;;;11.50;3.53;;;;;;;;;;5014819;28;20132;-26
2022/10/27 05:25:12;;;;;;;13.00;3.97;;;;;;;;;;5014650;28;20029;-27
2022/10/27 05:27:38;;;;;;;10.80;3.65;;;;;;;;;;5014675;28;20034;-26
2022/10/27 05:30:05;;;;;;;8.13;3.25;;;;;;;;;;5014616;28;20026;-26
2022/10/27 05:32:31;;;;;;;8.90;2.70;;;;;;;;;;5014811;28;20353;-26
2022/10/27 05:34:58;;;;;;;10.55;2.90;;;;;;;;;;5015081;28;20496;-27
2022/10/27 05:37:24;;;;;;;15.05;3.33;;;;;;;;;;5014560;28;20026;-27
2022/10/27 05:39:50;;;;;;;21.27;3.53;;;;;;;;;;5014794;28;20056;-27
2022/10/27 05:42:16;;;;;;;12.88;3.67;;;;;;;;;;5015103;28;20044;-27
2022/10/27 05:44:42;;;;;;;25.58;5.03;;;;;;;;;;5014727;28;20026;-27
2022/10/27 05:47:09;;;;;;;27.10;4.05;;;;;;;;;;5014421;28;20029;-27
2022/10/27 05:49:35;;;;;;;23.30;5.20;;;;;;;;;;5014684;28;20029;-27
2022/10/27 05:52:01;;;;;;;30.02;4.85;;;;;;;;;;5014613;28;20045;-27
2022/10/27 05:54:27;;;;;;;31.77;6.47;;;;;;;;;;5015150;28;20113;-27
2022/10/27 05:56:53;;;;;;;32.95;4.82;;;;;;;;;;5014795;28;20068;-27
2022/10/27 05:59:19;;;;;;;25.83;4.25;;;;;;;;;;5014303;28;20080;-27
2022/10/27 06:04:21;;;;;;;57.35;7.13;;;;;;;;;;4882223;26;20081;-31
2022/10/27 06:06:47;;;;;;;50.72;6.53;;;;;;;;;;5014709;28;20400;-31
2022/10/27 06:09:13;;;;;;;36.15;5.47;;;;;;;;;;5017770;28;20111;-32
2022/10/27 06:11:40;;;;;;;23.05;5.43;;;;;;;;;;5018082;28;20021;-31
2022/10/27 06:14:06;;;;;;;15.98;3.55;;;;;;;;;;4998219;28;20031;-31
2022/10/27 06:16:32;;;;;;;23.13;3.95;;;;;;;;;;4998152;28;20041;-29
2022/10/27 06:18:58;;;;;;;14.60;4.30;;;;;;;;;;4997992;28;20038;-31
2022/10/27 06:21:24;;;;;;;29.42;4.50;;;;;;;;;;4998292;28;20404;-31
2022/10/27 06:23:50;;;;;;;25.88;5.00;;;;;;;;;;4998347;28;20050;-31
2022/10/27 06:26:17;;;;;;;44.75;8.38;;;;;;;;;;4998127;28;20448;-32
2022/10/27 06:28:43;;;;;;;53.13;7.32;;;;;;;;;;4998079;28;20401;-31
2022/10/27 06:31:09;;;;;;;38.03;6.57;;;;;;;;;;4997784;28;20475;-32
2022/10/27 06:33:36;;;;;;;49.30;7.75;;;;;;;;;;4980635;28;20081;-31
2022/10/27 06:36:02;;;;;;;42.83;6.57;;;;;;;;;;4998431;28;20058;-32
2022/10/27 06:38:28;;;;;;;28.98;4.72;;;;;;;;;;4998170;28;20512;-31
2022/10/27 06:40:54;;;;;;;32.58;5.78;;;;;;;;;;4997604;28;20042;-34
2022/10/27 06:43:20;;;;;;;21.88;4.55;;;;;;;;;;4997411;28;20037;-32
2022/10/27 06:45:48;;;;;;;18.98;4.85;;;;;;;;;;4997741;28;20023;-31
2022/10/27 06:48:14;;;;;;;30.60;5.57;;;;;;;;;;4997513;28;20022;-30
2022/10/27 06:50:40;;;;;;;22.50;6.43;;;;;;;;;;4997470;28;20030;-31
2022/10/27 06:53:06;;;;;;;28.88;4.25;;;;;;;;;;4997667;28;20334;-32
2022/10/27 06:55:33;;;;;;;18.80;3.85;;;;;;;;;;4997454;28;20033;-31
2022/10/27 06:57:59;;;;;;;20.50;3.67;;;;;;;;;;4997682;28;20457;-31
2022/10/27 07:00:26;;;;;;;23.70;4.35;;;;;;;;;;4997386;28;20027;-31
2022/10/27 07:02:52;;;;;;;14.63;3.85;;;;;;;;;;4997154;28;20054;-32
2022/10/27 07:05:18;;;;;;;26.48;5.38;;;;;;;;;;4997258;28;20052;-31
2022/10/27 07:07:48;;;;;;;27.95;4.00;;;;;;;;;;4997231;28;20022;-31
2022/10/27 07:10:15;;;;;;;22.45;4.93;;;;;;;;;;4997452;28;20349;-32
2022/10/27 07:12:50;;;;;;;32.10;5.30;;;;;;;;;;4997087;28;20343;-32
2022/10/27 07:15:16;;;;;;;22.17;4.65;;;;;;;;;;4997057;28;20049;-31
2022/10/27 07:17:43;;;;;;;21.95;3.70;;;;;;;;;;4996888;28;20026;-32
2022/10/27 07:20:09;;;;;;;21.60;4.70;;;;;;;;;;4995795;28;20040;-31
2022/10/27 07:22:35;;;;;;;19.77;4.60;;;;;;;;;;4996898;28;20022;-32
2022/10/27 07:25:01;;;;;;;24.30;5.03;;;;;;;;;;4997024;28;20410;-32
2022/10/27 07:27:27;;;;;;;27.20;5.53;;;;;;;;;;4997598;28;20054;-33
2022/10/27 07:29:54;;;;;;;25.27;4.13;;;;;;;;;;4996761;28;20089;-31
2022/10/27 07:32:22;;;;;;;28.05;5.53;;;;;;;;;;4996722;28;20022;-32
2022/10/27 07:34:48;;;;;;;16.63;3.47;;;;;;;;;;4996912;28;20042;-31
2022/10/27 07:37:14;;;;;;;25.52;4.35;;;;;;;;;;4979843;28;20361;-30
2022/10/27 07:39:40;;;;;;;17.58;4.60;;;;;;;;;;4996910;28;20027;-30
2022/10/27 07:42:07;;;;;;;18.67;3.90;;;;;;;;;;4996486;28;20034;-31
2022/10/27 07:44:33;;;;;;;31.40;4.10;;;;;;;;;;4996824;28;20022;-30
2022/10/27 07:46:59;;;;;;;18.17;4.85;;;;;;;;;;4996421;28;20030;-32
2022/10/27 07:49:25;;;;;;;22.70;6.30;;;;;;;;;;4996680;28;20354;-31
2022/10/27 07:51:51;;;;;;;22.95;4.28;;;;;;;;;;4996537;28;20026;-31
2022/10/27 07:54:17;;;;;;;19.50;4.00;;;;;;;;;;4979251;28;20357;-31
2022/10/27 07:56:44;;;;;;;13.32;4.68;;;;;;;;;;4996256;28;20034;-30
2022/10/27 07:59:10;;;;;;;13.07;3.25;;;;;;;;;;4996491;28;20094;-32
2022/10/27 08:01:36;;;;;;;14.00;4.05;;;;;;;;;;4996451;28;20365;-31
2022/10/27 08:04:02;;;;;;;14.00;3.55;;;;;;;;;;4995820;28;20112;-31
2022/10/27 08:06:29;;;;;;;16.88;4.22;;;;;;;;;;4995942;28;20038;-31
2022/10/27 08:08:55;;;;;;;21.77;3.42;;;;;;;;;;4995987;28;20030;-31
2022/10/27 08:11:22;;;;;;;16.45;5.10;;;;;;;;;;4996033;28;20062;-40
2022/10/27 08:13:48;;;;;;;12.43;3.10;;;;;;;;;;4996186;28;20088;-30
2022/10/27 08:16:15;;;;;;;18.98;2.92;;;;;;;;;;4995959;28;20030;-31
2022/10/27 08:18:41;;;;;;;21.67;5.50;;;;;;;;;;4996458;28;20026;-31
2022/10/27 08:21:07;;;;;;;18.77;3.92;;;;;;;;;;4995802;28;20030;-31
2022/10/27 08:23:33;;;;;;;16.88;4.47;;;;;;;;;;4995919;28;20030;-30
2022/10/27 08:25:59;;;;;;;23.55;4.43;;;;;;;;;;4995716;28;20368;-31
2022/10/27 08:28:26;;;;;;;13.18;3.78;;;;;;;;;;4996225;28;20026;-32
2022/10/27 08:30:52;;;;;;;14.27;3.65;;;;;;;;;;4978160;28;20062;-32
2022/10/27 08:33:18;;;;;;;13.38;2.95;;;;;;;;;;4995902;28;20361;-32
2022/10/27 08:35:44;;;;;;;21.33;4.32;;;;;;;;;;4996117;28;20038;-32
2022/10/27 08:38:12;;;;;;;9.68;3.55;;;;;;;;;;4995624;28;20030;-32
2022/10/27 08:40:57;;;;;;;14.57;4.30;;;;;;;;;;4995558;28;20120;-31
2022/10/27 08:43:44;;;;;;;16.63;4.70;;;;;;;;;;4995321;28;20034;-31
2022/10/27 08:46:10;;;;;;;13.07;3.75;;;;;;;;;;4979595;28;20085;-32
2022/10/27 08:48:36;;;;;;;22.35;3.97;;;;;;;;;;4995678;28;20453;-31
2022/10/27 08:51:03;;;;;;;14.75;3.60;;;;;;;;;;4995411;28;20032;-32
2022/10/27 08:53:33;;;;;;;25.25;3.85;;;;;;;;;;4995858;28;20041;-31
2022/10/27 08:56:07;;;;;;;19.30;4.28;;;;;;;;;;4995325;28;20092;-29
2022/10/27 08:58:33;;;;;;;17.70;3.30;;;;;;;;;;4995654;28;20038;-30
2022/10/27 09:01:04;;;;;;;14.63;4.32;;;;;;;;;;4995238;28;20113;-30
2022/10/27 09:03:46;;;;;;;32.15;4.28;;;;;;;;;;4994834;28;20420;-30
2022/10/27 09:06:12;;;;;;;;;;;;;;;;;;4978567;28;20113;-29
2022/10/27 09:08:43;;;;;;;14.70;3.45;;;;;;;;;;4978072;28;19909;-30
2022/10/27 09:11:27;;;;;;;12.15;4.35;;;;;;;;;;4995596;28;20098;-30
2022/10/27 09:14:26;;;;;;;16.02;4.13;;;;;;;;;;4995777;28;20055;-30
2022/10/27 09:17:09;;;;;;;11.65;3.47;;;;;;;;;;4963029;28;20042;-30
2022/10/27 09:19:39;;;;;;;20.55;4.15;;;;;;;;;;4995441;28;20026;-31
2022/10/27 09:22:06;;;;;;;14.77;3.85;;;;;;;;;;4994971;28;20110;-30
2022/10/27 09:24:36;;;;;;;19.73;3.40;;;;;;;;;;4994916;28;20034;-30
2022/10/27 09:27:03;;;;;;;13.80;4.25;;;;;;;;;;4994986;28;20050;-30
2022/10/27 09:29:30;;;;;;;17.35;3.45;;;;;;;;;;4995033;28;20467;-30
2022/10/27 09:31:56;;;;;;;15.02;3.85;;;;;;;;;;4977658;28;20022;-30
2022/10/27 09:34:22;;;;;;;22.60;3.80;;;;;;;;;;4994877;28;20030;-32
2022/10/27 09:36:49;;;;;;;14.00;4.00;;;;;;;;;;4977744;28;20158;-31
2022/10/27 09:39:15;;;;;;;17.10;3.88;;;;;;;;;;4977808;28;20031;-32
2022/10/27 09:41:41;;;;;;;16.00;4.10;;;;;;;;;;4994827;28;20499;-32
2022/10/27 09:44:18;;;;;;;15.57;3.55;;;;;;;;;;4998640;28;20140;-32
2022/10/27 09:46:45;;;;;;;13.15;4.30;;;;;;;;;;4999551;28;20022;-32
2022/10/27 09:49:12;;;;;;;19.63;3.95;;;;;;;;;;4999105;28;20026;-33
2022/10/27 09:51:44;;;;;;;10.95;4.65;;;;;;;;;;4998823;28;20028;-31
2022/10/27 09:54:31;;;;;;;20.10;5.38;;;;;;;;;;4998553;28;20109;-33
2022/10/27 09:57:04;;;;;;;10.02;3.33;;;;;;;;;;4998512;28;20535;-32
2022/10/27 09:59:31;;;;;;;17.33;5.07;;;;;;;;;;4998401;28;20030;-32
2022/10/27 10:01:58;;;;;;;15.55;3.63;;;;;;;;;;4998247;28;20046;-32
2022/10/27 10:04:28;;;;;;;11.20;3.40;;;;;;;;;;4998078;28;20381;-31
2022/10/27 10:06:55;;;;;;;25.75;4.15;;;;;;;;;;4998193;28;20030;-31
2022/10/27 10:09:26;;;;;;;15.10;3.45;;;;;;;;;;4998187;28;20026;-31
2022/10/27 10:12:11;;;;;;;18.50;3.78;;;;;;;;;;4998148;28;20106;-32
2022/10/27 10:14:37;;;;;;;14.30;3.10;;;;;;;;;;4998354;28;20339;-31
2022/10/27 10:17:03;;;;;;;18.65;3.72;;;;;;;;;;4998076;28;20035;-31
2022/10/27 10:19:29;;;;;;;26.67;4.15;;;;;;;;;;4998260;28;20468;-31
2022/10/27 10:21:57;;;;;;;16.85;3.33;;;;;;;;;;4998210;28;20044;-32
2022/10/27 10:24:24;;;;;;;11.65;3.25;;;;;;;;;;4998178;28;20026;-32
2022/10/27 10:26:53;;;;;;;11.50;2.72;;;;;;;;;;4997846;28;20034;-33
2022/10/27 10:29:26;;;;;;;12.15;3.17;;;;;;;;;;4997911;28;20022;-31
2022/10/27 10:32:07;;;;;;;17.15;3.55;;;;;;;;;;4998056;28;20061;-31
2022/10/27 10:34:33;;;;;;;;;;;;;;;;;;4998262;28;20038;-32
2022/10/27 10:37:00;;;;;;;23.65;3.38;;;;;;;;;;4997787;28;19913;-33
2022/10/27 10:39:31;;;;;;;20.52;2.97;;;;;;;;;;4997837;28;20105;-31
2022/10/27 10:42:09;;;;;;;14.52;3.92;;;;;;;;;;4997990;28;20030;-32
2022/10/27 10:44:36;;;;;;;15.30;3.80;;;;;;;;;;4997847;28;20434;-32
2022/10/27 10:47:03;;;;;;;37.28;6.20;;;;;;;;;;4997500;28;20027;-32
2022/10/27 10:49:31;;;;;;;34.00;5.88;;;;;;;;;;4997425;28;20042;-32
2022/10/27 10:52:02;;;;;;;32.53;6.15;;;;;;;;;;4997464;28;20453;-31
2022/10/27 10:54:28;;;;;;;;;;;;;;;;;;4997881;28;20165;-31
2022/10/27 10:56:55;;;;;;;24.40;4.15;;;;;;;;;;4997276;28;19920;-31
2022/10/27 10:59:24;;;;;;;23.17;3.85;;;;;;;;;;4997696;28;20113;-32
2022/10/27 11:01:55;;;;;;;19.00;3.50;;;;;;;;;;4997277;28;20109;-31
2022/10/27 11:04:23;;;;;;;18.52;3.88;;;;;;;;;;4996991;28;20093;-31
2022/10/27 11:06:58;;;;;;;17.35;3.90;;;;;;;;;;4980002;28;20373;-30
2022/10/27 11:09:29;;;;;;;25.40;3.95;;;;;;;;;;4997286;28;20029;-30
2022/10/27 11:11:56;;;;;;;19.88;4.35;;;;;;;;;;4997296;28;20058;-31
2022/10/27 11:14:24;;;;;;;24.33;5.25;;;;;;;;;;4996955;28;20026;-32
2022/10/27 11:16:56;;;;;;;26.80;3.42;;;;;;;;;;4997189;28;20112;-32
2022/10/27 11:19:23;;;;;;;20.48;4.07;;;;;;;;;;4996995;28;20034;-31
2022/10/27 11:21:58;;;;;;;14.95;3.95;;;;;;;;;;4996869;28;20038;-32
2022/10/27 11:24:33;;;;;;;22.20;4.25;;;;;;;;;;4996934;28;20018;-31
2022/10/27 11:27:02;;;;;;;16.23;3.63;;;;;;;;;;4996511;28;20154;-30
2022/10/27 11:29:37;;;;;;;30.02;5.57;;;;;;;;;;4996430;28;20045;-30
2022/10/27 11:32:15;;;;;;;22.73;4.15;;;;;;;;;;4996738;28;20037;-31
2022/10/27 11:34:50;;;;;;;25.92;4.45;;;;;;;;;;4996837;28;20050;-32
2022/10/27 11:37:27;;;;;;;22.92;3.30;;;;;;;;;;4996387;28;20045;-31
2022/10/27 11:39:56;;;;;;;18.30;4.53;;;;;;;;;;4996650;28;20040;-32
2022/10/27 11:42:22;;;;;;;25.92;4.00;;;;;;;;;;4996230;28;20464;-31
2022/10/27 11:44:48;;;;;;;23.80;5.20;;;;;;;;;;4996155;28;20042;-31
2022/10/27 11:47:41;;;;;;;15.15;3.30;;;;;;;;;;4996535;28;20018;-32
2022/10/27 11:50:07;;;;;;;19.00;4.10;;;;;;;;;;4993538;28;20038;-32
2022/10/27 11:52:45;;;;;;;25.80;5.05;;;;;;;;;;4996397;28;20057;-32
2022/10/27 11:55:14;;;;;;;31.25;5.10;;;;;;;;;;4996123;28;20050;-31
2022/10/27 11:57:46;;;;;;;19.83;4.70;;;;;;;;;;4996206;28;20027;-31
2022/10/27 12:00:18;;;;;;;18.27;5.13;;;;;;;;;;4996025;28;20054;-32
2022/10/27 12:03:03;;;;;;;20.45;3.65;;;;;;;;;;4995561;28;20077;-31
2022/10/27 12:05:52;;;;;;;18.00;3.72;;;;;;;;;;4995472;28;20061;-31
2022/10/27 12:08:19;;;;;;;22.63;4.38;;;;;;;;;;4995701;28;20444;-30
2022/10/27 12:11:00;;;;;;;26.40;4.03;;;;;;;;;;4995739;28;20026;-31
2022/10/27 12:13:32;;;;;;;26.52;4.75;;;;;;;;;;4995951;28;20029;-32
2022/10/27 12:16:04;;;;;;;23.05;5.90;;;;;;;;;;4995578;28;20065;-32
2022/10/27 12:18:38;;;;;;;19.90;4.93;;;;;;;;;;4995536;28;20108;-31
2022/10/27 12:21:11;;;;;;;18.50;3.88;;;;;;;;;;4995585;28;20113;-32
2022/10/27 12:23:41;;;;;;;22.95;7.72;;;;;;;;;;4995777;28;20041;-32
2022/10/27 12:26:16;;;;;;;21.13;4.10;;;;;;;;;;4995460;28;20038;-31
2022/10/27 12:28:44;;;;;;;15.10;3.22;;;;;;;;;;4995564;28;20033;-32
2022/10/27 12:31:13;;;;;;;15.23;3.60;;;;;;;;;;4995272;28;20105;-31
2022/10/27 12:33:45;;;;;;;18.92;3.42;;;;;;;;;;4995263;28;20027;-31
2022/10/27 12:36:11;;;;;;;18.98;4.78;;;;;;;;;;4995542;28;20041;-31
2022/10/27 12:38:41;;;;;;;19.55;3.58;;;;;;;;;;4995243;28;20045;-31
2022/10/27 12:41:07;;;;;;;16.20;4.10;;;;;;;;;;4995486;28;20034;-31
2022/10/27 12:43:36;;;;;;;20.58;4.05;;;;;;;;;;4995109;28;20030;-31
2022/10/27 12:46:23;;;;;;;14.30;4.55;;;;;;;;;;4995193;28;20105;-32
2022/10/27 12:49:08;;;;;;;34.28;4.43;;;;;;;;;;4995272;28;20034;-31
2022/10/27 12:51:46;;;;;;;20.17;4.07;;;;;;;;;;4995531;28;20026;-32
2022/10/27 12:54:27;;;;;;;25.77;4.00;;;;;;;;;;4995158;28;20041;-32
2022/10/27 12:56:54;;;;;;;16.98;3.75;;;;;;;;;;4994799;28;20034;-31
2022/10/27 12:59:38;;;;;;;25.20;4.07;;;;;;;;;;4994655;28;20472;-31
2022/10/27 13:02:12;;;;;;;20.45;3.75;;;;;;;;;;4977223;28;20045;-31
2022/10/27 13:04:38;;;;;;;18.55;3.50;;;;;;;;;;4995145;28;20030;-31
2022/10/27 13:07:22;;;;;;;23.80;4.20;;;;;;;;;;4994708;28;20054;-31
2022/10/27 13:09:55;;;;;;;19.67;3.50;;;;;;;;;;4994753;28;20044;-32
2022/10/27 13:12:24;;;;;;;11.00;3.78;;;;;;;;;;4994917;28;20097;-31
2022/10/27 13:15:03;;;;;;;21.10;3.97;;;;;;;;;;4994678;28;20027;-31
2022/10/27 13:17:47;;;;;;;20.92;5.35;;;;;;;;;;4998109;28;20520;-31
2022/10/27 13:20:34;;;;;;;25.65;3.90;;;;;;;;;;4998874;28;20096;-32
2022/10/27 13:23:39;;;;;;;25.52;4.10;;;;;;;;;;4998633;28;20065;-31
2022/10/27 13:26:23;;;;;;;20.77;4.30;;;;;;;;;;4939346;29;20387;-32
2022/10/27 13:28:52;;;;;;;23.70;3.78;;;;;;;;;;4939309;29;20043;-31
2022/10/27 13:31:27;;;;;;;15.77;3.70;;;;;;;;;;4976083;28;20100;-32
2022/10/27 13:34:00;;;;;;;20.98;3.83;;;;;;;;;;4998917;28;20057;-33
2022/10/27 13:36:27;;;;;;;23.33;4.35;;;;;;;;;;4999015;28;20046;-32
2022/10/27 13:39:13;;;;;;;19.02;4.63;;;;;;;;;;4999143;28;20334;-35
2022/10/27 13:41:58;;;;;;;19.73;4.00;;;;;;;;;;4998230;28;20046;-33
2022/10/27 13:44:27;;;;;;;16.48;4.28;;;;;;;;;;4999183;28;20392;-33
2022/10/27 13:47:10;;;;;;;20.17;4.03;;;;;;;;;;4998995;28;20023;-31
2022/10/27 13:49:42;;;;;;;17.25;3.35;;;;;;;;;;4998959;28;20339;-30
2022/10/27 13:52:14;;;;;;;23.10;3.30;;;;;;;;;;4998460;28;20037;-31
2022/10/27 13:54:57;;;;;;;17.90;4.15;;;;;;;;;;4998799;28;20086;-31
2022/10/27 13:57:42;;;;;;;24.63;3.97;;;;;;;;;;4998797;28;20034;-30
2022/10/27 14:00:14;;;;;;;21.92;3.90;;;;;;;;;;4998444;28;20038;-30
2022/10/27 14:02:47;;;;;;;18.98;3.60;;;;;;;;;;4980983;28;20125;-30
2022/10/27 14:05:21;;;;;;;19.55;3.45;;;;;;;;;;4998622;28;20046;-31
2022/10/27 14:07:48;;;;;;;23.73;4.57;;;;;;;;;;4998371;28;20133;-30
2022/10/27 14:10:14;;;;;;;11.57;2.97;;;;;;;;;;4999014;28;20030;-31
2022/10/27 14:12:40;;;;;;;12.50;3.60;;;;;;;;;;4998987;28;20050;-30
2022/10/27 14:15:15;;;;;;;16.13;3.13;;;;;;;;;;4998205;28;20049;-31
2022/10/27 14:17:42;;;;;;;29.15;4.45;;;;;;;;;;4998394;28;20030;-31
2022/10/27 14:20:32;;;;;;;21.48;3.67;;;;;;;;;;4998216;28;20109;-30
2022/10/27 14:23:11;;;;;;;20.20;3.92;;;;;;;;;;4973250;28;20038;-31
2022/10/27 14:25:37;;;;;;;19.48;3.75;;;;;;;;;;4998307;28;20026;-30
2022/10/27 14:28:04;;;;;;;16.08;3.70;;;;;;;;;;4997320;28;20022;-31
2022/10/27 14:30:30;;;;;;;23.77;3.53;;;;;;;;;;4997908;28;20030;-31
2022/10/27 14:32:56;;;;;;;26.30;4.45;;;;;;;;;;4980685;28;20034;-30
2022/10/27 14:35:24;;;;;;;11.57;3.50;;;;;;;;;;4998332;28;20034;-30
2022/10/27 14:37:55;;;;;;;16.63;2.78;;;;;;;;;;4997739;28;20034;-32
2022/10/27 14:40:21;;;;;;;;;;;;;;;;;;4998116;28;20060;-31
2022/10/27 14:42:48;;;;;;;25.15;3.70;;;;;;;;;;4997664;28;19992;-32
2022/10/27 14:45:19;;;;;;;18.70;4.18;;;;;;;;;;4997643;28;20057;-31
2022/10/27 14:47:59;;;;;;;15.73;4.10;;;;;;;;;;4997893;28;20026;-30
2022/10/27 14:50:28;;;;;;;19.10;4.45;;;;;;;;;;4997800;28;20057;-32